createdAt,value
2017-10-02T00:02:15.658Z,18.17
2017-10-02T00:04:50.544Z,16.73
2017-10-02T00:07:25.126Z,17.67
2017-10-02T00:10:00.428Z,16.93
2017-10-02T00:12:34.889Z,16.30
2017-10-02T00:15:15.313Z,16.57
2017-10-02T00:17:49.833Z,17.73
2017-10-02T00:20:24.336Z,17.87
2017-10-02T00:22:58.834Z,19.00
2017-10-02T00:25:33.394Z,18.20
2017-10-02T00:28:07.938Z,17.10
2017-10-02T00:30:42.489Z,19.13
2017-10-02T00:33:16.982Z,18.70
2017-10-02T00:35:51.626Z,17.43
2017-10-02T00:38:26.293Z,18.57
2017-10-02T00:41:01.573Z,18.63
2017-10-02T00:43:36.195Z,19.63
2017-10-02T00:46:10.954Z,17.77
2017-10-02T00:48:45.622Z,17.23
2017-10-02T00:51:20.310Z,18.07
2017-10-02T00:53:54.971Z,19.00
2017-10-02T00:56:29.633Z,17.60
2017-10-02T00:59:04.065Z,18.73
2017-10-02T01:01:38.601Z,17.77
2017-10-02T01:04:13.178Z,16.30
2017-10-02T01:06:47.853Z,18.03
2017-10-02T01:09:22.373Z,18.50
2017-10-02T01:11:56.900Z,17.77
2017-10-02T01:14:31.388Z,18.23
2017-10-02T01:17:05.922Z,18.30
2017-10-02T01:19:40.581Z,18.83
2017-10-02T01:22:15.175Z,16.87
2017-10-02T01:24:49.658Z,19.13
2017-10-02T01:27:24.322Z,20.33
2017-10-02T01:29:58.970Z,18.10
2017-10-02T01:32:33.619Z,18.17
2017-10-02T01:35:14.898Z,19.73
2017-10-02T01:37:49.378Z,18.00
2017-10-02T01:40:30.155Z,19.63
2017-10-02T01:43:04.753Z,16.70
2017-10-02T01:45:39.370Z,18.03
2017-10-02T01:48:14.023Z,16.77
2017-10-02T01:50:48.592Z,17.43
2017-10-02T01:53:23.165Z,17.17
2017-10-02T01:55:57.766Z,16.60
2017-10-02T01:58:32.619Z,16.77
2017-10-02T02:01:07.254Z,17.43
2017-10-02T02:03:41.823Z,16.53
2017-10-02T02:06:16.305Z,17.20
2017-10-02T02:08:50.770Z,17.77
2017-10-02T02:11:25.319Z,17.10
2017-10-02T02:13:59.825Z,18.30
2017-10-02T02:16:34.378Z,18.63
2017-10-02T02:19:09.019Z,16.80
2017-10-02T02:21:43.459Z,17.70
2017-10-02T02:24:17.914Z,18.50
2017-10-02T02:26:52.493Z,17.73
2017-10-02T02:29:26.946Z,17.20
2017-10-02T02:32:01.486Z,17.30
2017-10-02T02:34:36.918Z,18.33
2017-10-02T02:37:11.540Z,17.40
2017-10-02T02:39:46.055Z,18.33
2017-10-02T02:42:20.499Z,17.53
2017-10-02T02:44:55.898Z,19.63
2017-10-02T02:47:30.697Z,16.60
2017-10-02T02:50:13.734Z,18.23
2017-10-02T02:52:48.366Z,17.60
2017-10-02T02:55:23.176Z,20.73
2017-10-02T02:57:57.619Z,18.87
2017-10-02T03:00:32.192Z,17.67
2017-10-02T03:03:06.787Z,18.40
2017-10-02T03:05:41.319Z,17.33
2017-10-02T03:08:16.000Z,16.17
2017-10-02T03:10:50.674Z,17.07
2017-10-02T03:13:25.238Z,18.40
2017-10-02T03:15:59.811Z,16.63
2017-10-02T03:18:35.162Z,18.00
2017-10-02T03:21:10.594Z,18.37
2017-10-02T03:23:45.221Z,19.70
2017-10-02T03:26:19.875Z,19.60
2017-10-02T03:28:54.522Z,16.13
2017-10-02T03:31:29.023Z,17.90
2017-10-02T03:34:03.611Z,18.10
2017-10-02T03:36:38.170Z,17.60
2017-10-02T03:39:12.806Z,17.80
2017-10-02T03:41:47.382Z,19.87
2017-10-02T03:44:22.838Z,20.10
2017-10-02T03:46:57.373Z,18.93
2017-10-02T03:49:31.960Z,19.60
2017-10-02T03:52:06.758Z,18.13
2017-10-02T03:54:41.282Z,18.70
2017-10-02T03:57:15.805Z,18.13
2017-10-02T03:59:50.360Z,17.03
2017-10-02T04:02:25.745Z,18.83
2017-10-02T04:05:00.164Z,18.07
2017-10-02T04:07:34.698Z,19.53
2017-10-02T04:10:14.978Z,18.30
2017-10-02T04:12:49.574Z,18.57
2017-10-02T04:15:24.297Z,18.47
2017-10-02T04:17:58.774Z,18.03
2017-10-02T04:20:33.342Z,15.63
2017-10-02T04:23:08.682Z,18.20
2017-10-02T04:25:43.406Z,17.00
2017-10-02T04:28:17.926Z,15.80
2017-10-02T04:30:52.595Z,17.60
2017-10-02T04:33:27.098Z,17.53
2017-10-02T04:36:01.705Z,18.57
2017-10-02T04:38:36.191Z,17.63
2017-10-02T04:41:10.767Z,16.83
2017-10-02T04:43:45.266Z,18.33
2017-10-02T04:46:20.623Z,17.30
2017-10-02T04:48:55.175Z,16.83
2017-10-02T04:51:29.870Z,16.87
2017-10-02T04:54:04.485Z,18.10
2017-10-02T04:56:39.015Z,16.53
2017-10-02T04:59:13.609Z,18.87
2017-10-02T05:01:48.130Z,19.37
2017-10-02T05:04:22.934Z,19.90
2017-10-02T05:06:57.454Z,21.20
2017-10-02T05:09:32.355Z,20.10
2017-10-02T05:12:07.715Z,20.07
2017-10-02T05:14:42.315Z,18.70
2017-10-02T05:17:16.853Z,20.37
2017-10-02T05:19:52.197Z,19.60
2017-10-02T05:22:26.889Z,19.10
2017-10-02T05:25:01.483Z,17.70
2017-10-02T05:27:36.078Z,20.77
2017-10-02T05:30:16.520Z,18.53
2017-10-02T05:32:51.038Z,19.47
2017-10-02T05:35:25.614Z,20.70
2017-10-02T05:38:00.122Z,20.33
2017-10-02T05:40:34.757Z,18.43
2017-10-02T05:43:09.330Z,19.97
2017-10-02T05:45:43.834Z,18.37
2017-10-02T05:48:18.577Z,19.27
2017-10-02T05:50:53.669Z,18.73
2017-10-02T05:53:28.275Z,17.90
2017-10-02T05:56:02.830Z,18.10
2017-10-02T05:58:37.423Z,17.40
2017-10-02T06:01:12.031Z,15.23
2017-10-02T06:03:46.596Z,17.57
2017-10-02T06:06:21.129Z,18.13
2017-10-02T06:08:55.848Z,17.27
2017-10-02T06:11:30.550Z,16.90
2017-10-02T06:14:05.193Z,15.83
2017-10-02T06:16:39.726Z,16.30
2017-10-02T06:19:14.196Z,15.40
2017-10-02T06:21:48.731Z,16.60
2017-10-02T06:24:23.402Z,15.57
2017-10-02T06:26:58.203Z,16.03
2017-10-02T06:29:32.904Z,16.57
2017-10-02T06:32:07.774Z,15.77
2017-10-02T06:34:42.279Z,15.63
2017-10-02T06:37:16.846Z,15.50
2017-10-02T06:39:51.288Z,15.50
2017-10-02T06:42:25.846Z,16.93
2017-10-02T06:45:00.274Z,16.00
2017-10-02T06:47:34.938Z,16.07
2017-10-02T06:50:17.217Z,17.30
2017-10-02T06:52:51.653Z,14.63
2017-10-02T06:55:26.369Z,17.37
2017-10-02T06:58:00.981Z,15.27
2017-10-02T07:00:35.521Z,16.00
2017-10-02T07:03:10.059Z,16.23
2017-10-02T07:05:45.230Z,16.30
2017-10-02T07:08:19.730Z,14.87
2017-10-02T07:10:54.286Z,15.77
2017-10-02T07:13:28.781Z,15.10
2017-10-02T07:16:03.362Z,15.73
2017-10-02T07:18:38.002Z,14.53
2017-10-02T07:21:12.495Z,14.47
2017-10-02T07:23:47.182Z,15.50
2017-10-02T07:26:21.494Z,14.47
2017-10-02T07:28:56.134Z,14.17
2017-10-02T07:31:30.759Z,14.43
2017-10-02T07:34:05.364Z,15.83
2017-10-02T07:36:39.858Z,15.27
2017-10-02T07:39:14.531Z,14.20
2017-10-02T07:41:49.022Z,14.50
2017-10-02T07:44:23.549Z,13.80
2017-10-02T07:46:58.242Z,13.47
2017-10-02T07:49:32.731Z,13.40
2017-10-02T07:52:07.203Z,13.20
2017-10-02T07:54:41.682Z,12.80
2017-10-02T07:57:16.193Z,11.00
2017-10-02T07:59:50.633Z,13.70
2017-10-02T08:02:25.502Z,11.43
2017-10-02T08:05:00.174Z,9.93
2017-10-02T08:07:34.754Z,10.53
2017-10-02T08:10:15.726Z,9.20
2017-10-02T08:12:50.414Z,10.33
2017-10-02T08:15:25.034Z,9.03
2017-10-02T08:18:00.442Z,8.03
2017-10-02T08:20:35.153Z,8.87
2017-10-02T08:23:09.586Z,9.30
2017-10-02T08:25:44.182Z,7.93
2017-10-02T08:28:18.734Z,8.80
2017-10-02T08:30:53.263Z,7.20
2017-10-02T08:33:27.823Z,9.60
2017-10-02T08:36:02.121Z,7.90
2017-10-02T08:38:36.753Z,7.87
2017-10-02T08:41:11.319Z,7.50
2017-10-02T08:43:45.995Z,7.80
2017-10-02T08:46:21.422Z,8.57
2017-10-02T08:48:55.962Z,8.93
2017-10-02T08:51:30.507Z,8.40
2017-10-02T08:54:05.007Z,7.80
2017-10-02T08:56:39.558Z,8.70
2017-10-02T08:59:14.062Z,9.13
2017-10-02T09:01:48.599Z,9.00
2017-10-02T09:04:23.051Z,8.63
2017-10-02T09:06:57.666Z,8.60
2017-10-02T09:09:32.398Z,8.30
2017-10-02T09:12:06.995Z,8.23
2017-10-02T09:14:41.490Z,9.70
2017-10-02T09:17:16.111Z,10.00
2017-10-02T09:19:51.458Z,10.53
2017-10-02T09:22:26.026Z,11.90
2017-10-02T09:25:00.557Z,9.73
2017-10-02T09:27:35.077Z,9.43
2017-10-02T09:30:15.474Z,9.27
2017-10-02T09:32:50.098Z,8.80
2017-10-02T09:35:24.740Z,9.20
2017-10-02T09:37:59.189Z,8.70
2017-10-02T09:40:33.830Z,9.80
2017-10-02T09:43:08.274Z,9.17
2017-10-02T09:45:42.881Z,9.13
2017-10-02T09:48:17.543Z,9.33
2017-10-02T09:50:52.090Z,8.57
2017-10-02T09:53:26.602Z,8.70
2017-10-02T09:56:01.138Z,9.60
2017-10-02T09:58:35.618Z,9.80
2017-10-02T10:01:10.201Z,8.90
2017-10-02T10:03:44.841Z,8.87
2017-10-02T10:06:19.218Z,10.20
2017-10-02T10:08:53.724Z,9.10
2017-10-02T10:11:27.849Z,9.03
2017-10-02T10:14:02.418Z,9.13
2017-10-02T10:16:36.954Z,8.23
2017-10-02T10:19:12.387Z,8.33
2017-10-02T10:21:46.841Z,7.50
2017-10-02T10:24:21.398Z,8.13
2017-10-02T10:26:55.953Z,7.73
2017-10-02T10:29:30.534Z,8.53
2017-10-02T10:32:05.084Z,7.90
2017-10-02T10:34:39.739Z,7.10
2017-10-02T10:37:14.161Z,7.80
2017-10-02T10:39:48.777Z,7.17
2017-10-02T10:42:23.358Z,7.77
2017-10-02T10:44:58.115Z,7.90
2017-10-02T10:47:32.828Z,8.20
2017-10-02T10:50:16.142Z,8.67
2017-10-02T10:52:50.630Z,8.30
2017-10-02T10:55:25.211Z,9.07
2017-10-02T10:57:59.665Z,9.40
2017-10-02T11:00:34.271Z,9.37
2017-10-02T11:03:08.887Z,8.07
2017-10-02T11:05:43.295Z,8.63
2017-10-02T11:08:17.773Z,8.70
2017-10-02T11:10:52.409Z,8.67
2017-10-02T11:13:26.819Z,8.53
2017-10-02T11:16:01.508Z,8.67
2017-10-02T11:18:36.035Z,8.80
2017-10-02T11:21:10.617Z,8.30
2017-10-02T11:23:45.287Z,8.40
2017-10-02T11:26:19.920Z,9.30
2017-10-02T11:28:54.368Z,9.13
2017-10-02T11:31:28.850Z,8.10
2017-10-02T11:34:03.273Z,8.40
2017-10-02T11:36:37.598Z,8.93
2017-10-02T11:39:12.171Z,9.23
2017-10-02T11:41:46.654Z,8.87
2017-10-02T11:44:21.330Z,8.53
2017-10-02T11:46:55.820Z,8.80
2017-10-02T11:49:30.143Z,7.90
2017-10-02T11:52:04.648Z,7.33
2017-10-02T11:54:39.241Z,8.30
2017-10-02T11:57:13.766Z,7.90
2017-10-02T11:59:48.391Z,7.80
2017-10-02T12:02:22.956Z,7.73
2017-10-02T12:04:57.515Z,8.00
2017-10-02T12:07:31.997Z,7.83
2017-10-02T12:10:10.269Z,7.37
2017-10-02T12:12:44.819Z,8.00
2017-10-02T12:15:19.306Z,8.80
2017-10-02T12:17:53.902Z,7.97
2017-10-02T12:20:28.503Z,8.50
2017-10-02T12:23:03.257Z,7.73
2017-10-02T12:25:37.752Z,8.43
2017-10-02T12:28:12.175Z,7.90
2017-10-02T12:30:46.762Z,8.50
2017-10-02T12:33:21.285Z,8.80
2017-10-02T12:35:55.917Z,8.80
2017-10-02T12:38:30.557Z,9.33
2017-10-02T12:41:05.070Z,8.33
2017-10-02T12:43:39.659Z,9.70
2017-10-02T12:46:14.706Z,10.43
2017-10-02T12:48:49.366Z,10.13
2017-10-02T12:51:24.058Z,12.13
2017-10-02T12:53:58.673Z,10.40
2017-10-02T12:56:33.431Z,11.53
2017-10-02T12:59:08.070Z,10.73
2017-10-02T13:01:42.534Z,11.40
2017-10-02T13:04:17.224Z,11.80
2017-10-02T13:06:51.778Z,12.10
2017-10-02T13:09:26.353Z,11.30
2017-10-02T13:12:00.814Z,12.23
2017-10-02T13:14:35.314Z,11.40
2017-10-02T13:17:09.889Z,11.27
2017-10-02T13:19:44.506Z,11.57
2017-10-02T13:22:19.243Z,10.70
2017-10-02T13:24:53.738Z,11.10
2017-10-02T13:27:28.366Z,10.47
2017-10-02T13:32:44.314Z,11.37
2017-10-02T13:35:18.786Z,12.30
2017-10-02T13:37:53.262Z,12.03
2017-10-02T13:40:27.943Z,11.57
2017-10-02T13:43:02.582Z,12.20
2017-10-02T13:45:37.217Z,10.93
2017-10-02T13:48:11.920Z,10.77
2017-10-02T13:50:47.163Z,11.80
2017-10-02T13:53:21.754Z,10.90
2017-10-02T13:55:56.372Z,11.13
2017-10-02T13:58:30.854Z,10.80
2017-10-02T14:01:06.162Z,10.43
2017-10-02T14:03:40.440Z,10.37
2017-10-02T14:06:14.771Z,10.53
2017-10-02T14:08:49.122Z,10.03
2017-10-02T14:11:23.479Z,11.07
2017-10-02T14:13:57.735Z,11.20
2017-10-02T14:16:32.322Z,10.50
2017-10-02T14:19:06.945Z,10.27
2017-10-02T14:21:41.466Z,10.20
2017-10-02T14:24:16.100Z,11.10
2017-10-02T14:26:50.791Z,10.60
2017-10-02T14:29:25.405Z,10.87
2017-10-02T14:32:00.054Z,11.70
2017-10-02T14:34:34.713Z,11.47
2017-10-02T14:37:09.230Z,11.60
2017-10-02T14:39:44.160Z,10.90
2017-10-02T14:42:18.805Z,10.10
2017-10-02T14:44:53.302Z,10.80
2017-10-02T14:47:27.874Z,11.17
2017-10-02T14:50:03.832Z,11.50
2017-10-02T14:52:45.385Z,12.70
2017-10-02T14:55:19.945Z,11.63
2017-10-02T14:57:54.547Z,10.73
2017-10-02T15:00:29.114Z,11.90
2017-10-02T15:03:04.570Z,10.60
2017-10-02T15:05:39.106Z,11.40
2017-10-02T15:08:13.745Z,10.60
2017-10-02T15:10:48.318Z,11.47
2017-10-02T15:13:22.963Z,10.90
2017-10-02T15:15:57.527Z,10.97
2017-10-02T15:18:32.938Z,10.43
2017-10-02T15:21:07.571Z,10.77
2017-10-02T15:23:42.109Z,11.10
2017-10-02T15:26:16.649Z,10.00
2017-10-02T15:28:51.327Z,11.50
2017-10-02T15:31:25.862Z,11.60
2017-10-02T15:34:00.809Z,11.83
2017-10-02T15:36:35.443Z,10.87
2017-10-02T15:39:10.004Z,12.33
2017-10-02T15:41:44.618Z,12.57
2017-10-02T15:44:19.422Z,14.90
2017-10-02T15:46:53.914Z,12.47
2017-10-02T15:49:28.358Z,14.17
2017-10-02T15:52:03.132Z,14.17
2017-10-02T15:54:37.815Z,14.80
2017-10-02T15:57:12.422Z,15.00
2017-10-02T15:59:46.930Z,14.63
2017-10-02T16:02:21.494Z,14.13
2017-10-02T16:04:56.154Z,12.63
2017-10-02T16:07:30.685Z,13.30
2017-10-02T16:10:14.251Z,14.80
2017-10-02T16:12:48.853Z,13.20
2017-10-02T16:15:23.530Z,14.07
2017-10-02T16:17:58.943Z,11.67
2017-10-02T16:20:33.597Z,14.67
2017-10-02T16:23:08.214Z,12.67
2017-10-02T16:25:42.792Z,13.57
2017-10-02T16:28:17.482Z,13.50
2017-10-02T16:30:52.062Z,13.80
2017-10-02T16:33:26.850Z,12.83
2017-10-02T16:36:01.458Z,14.90
2017-10-02T16:38:36.058Z,15.70
2017-10-02T16:41:10.671Z,15.30
2017-10-02T16:43:45.138Z,14.17
2017-10-02T16:46:19.709Z,12.77
2017-10-02T16:48:54.609Z,14.57
2017-10-02T16:51:29.223Z,12.10
2017-10-02T16:54:03.735Z,12.17
2017-10-02T16:56:38.295Z,14.53
2017-10-02T16:59:12.954Z,13.80
2017-10-02T17:01:47.523Z,14.73
2017-10-02T17:04:21.982Z,13.20
2017-10-02T17:06:56.562Z,13.93
2017-10-02T17:09:31.034Z,15.10
2017-10-02T17:12:05.664Z,12.60
2017-10-02T17:14:40.106Z,12.20
2017-10-02T17:17:14.653Z,13.10
2017-10-02T17:19:49.264Z,12.87
2017-10-02T17:22:23.814Z,12.83
2017-10-02T17:24:58.106Z,12.33
2017-10-02T17:27:32.657Z,13.60
2017-10-02T17:30:14.386Z,13.30
2017-10-02T17:32:49.014Z,14.60
2017-10-02T17:35:23.636Z,15.47
2017-10-02T17:37:58.310Z,14.73
2017-10-02T17:40:32.597Z,14.70
2017-10-02T17:43:07.262Z,14.20
2017-10-02T17:45:41.798Z,13.33
2017-10-02T17:48:16.335Z,13.80
2017-10-02T17:50:50.869Z,14.60
2017-10-02T17:53:25.438Z,12.97
2017-10-02T17:56:00.030Z,12.37
2017-10-02T17:58:34.514Z,14.50
2017-10-02T18:01:09.064Z,15.37
2017-10-02T18:03:43.511Z,12.70
2017-10-02T18:06:18.086Z,13.57
2017-10-02T18:08:52.679Z,14.30
2017-10-02T18:11:27.282Z,15.23
2017-10-02T18:14:03.493Z,13.83
2017-10-02T18:16:38.117Z,14.60
2017-10-02T18:19:12.890Z,14.43
2017-10-02T18:21:47.446Z,14.37
2017-10-02T18:24:22.094Z,12.63
2017-10-02T18:26:56.730Z,14.70
2017-10-02T18:29:31.343Z,13.47
2017-10-02T18:32:05.934Z,13.70
2017-10-02T18:34:40.461Z,12.73
2017-10-02T18:37:15.186Z,14.37
2017-10-02T18:39:49.675Z,14.07
2017-10-02T18:42:24.209Z,15.57
2017-10-02T18:44:58.838Z,15.23
2017-10-02T18:47:33.426Z,14.23
2017-10-02T18:50:14.796Z,13.87
2017-10-02T18:52:49.450Z,12.40
2017-10-02T18:55:24.034Z,16.00
2017-10-02T18:57:58.627Z,14.20
2017-10-02T19:00:33.324Z,13.87
2017-10-02T19:03:10.808Z,14.27
2017-10-02T19:05:45.354Z,14.50
2017-10-02T19:08:19.849Z,14.90
2017-10-02T19:10:55.078Z,13.73
2017-10-02T19:13:30.563Z,14.70
2017-10-02T19:16:05.231Z,14.30
2017-10-02T19:18:39.819Z,15.10
2017-10-02T19:21:14.338Z,14.77
2017-10-02T19:23:48.917Z,16.17
2017-10-02T19:26:23.429Z,15.67
2017-10-02T19:28:57.917Z,14.17
2017-10-02T19:31:32.502Z,14.80
2017-10-02T19:34:07.238Z,13.70
2017-10-02T19:36:41.878Z,13.87
2017-10-02T19:39:16.582Z,15.77
2017-10-02T19:41:51.110Z,13.43
2017-10-02T19:44:26.325Z,14.23
2017-10-02T19:47:00.798Z,15.13
2017-10-02T19:49:35.376Z,16.30
2017-10-02T19:52:10.035Z,14.90
2017-10-02T19:54:44.654Z,15.20
2017-10-02T19:57:19.115Z,15.50
2017-10-02T19:59:53.788Z,14.93
2017-10-02T20:02:28.414Z,15.40
2017-10-02T20:05:03.249Z,14.90
2017-10-02T20:07:37.906Z,15.00
2017-10-02T20:10:14.330Z,14.80
2017-10-02T20:12:48.942Z,13.60
2017-10-02T20:15:23.486Z,15.60
2017-10-02T20:17:58.148Z,16.13
2017-10-02T20:20:32.766Z,14.93
2017-10-02T20:23:07.205Z,14.57
2017-10-02T20:25:41.698Z,13.30
2017-10-02T20:28:16.308Z,17.10
2017-10-02T20:30:50.863Z,15.33
2017-10-02T20:33:25.552Z,15.17
2017-10-02T20:36:00.300Z,13.63
2017-10-02T20:38:34.939Z,15.37
2017-10-02T20:41:09.526Z,15.13
2017-10-02T20:43:45.012Z,14.50
2017-10-02T20:46:19.675Z,14.67
2017-10-02T20:48:54.402Z,14.40
2017-10-02T20:51:28.884Z,16.27
2017-10-02T20:54:03.514Z,17.30
2017-10-02T20:56:38.193Z,14.40
2017-10-02T20:59:12.713Z,15.63
2017-10-02T21:01:47.337Z,15.50
2017-10-02T21:04:21.834Z,15.73
2017-10-02T21:06:56.522Z,15.70
2017-10-02T21:09:31.115Z,15.40
2017-10-02T21:12:05.643Z,19.43
2017-10-02T21:14:40.210Z,17.83
2017-10-02T21:17:14.559Z,17.70
2017-10-02T21:19:49.217Z,18.50
2017-10-02T21:22:23.493Z,17.53
2017-10-02T21:24:58.163Z,17.27
2017-10-02T21:27:32.774Z,15.77
2017-10-02T21:30:14.603Z,15.60
2017-10-02T21:32:49.222Z,15.23
2017-10-02T21:35:23.765Z,17.47
2017-10-02T21:37:59.185Z,16.10
2017-10-02T21:40:33.638Z,16.47
2017-10-02T21:43:08.853Z,15.57
2017-10-02T21:45:43.451Z,15.40
2017-10-02T21:48:17.882Z,17.53
2017-10-02T21:50:52.478Z,16.60
2017-10-02T21:53:26.926Z,16.70
2017-10-02T21:56:01.590Z,17.10
2017-10-02T21:58:36.098Z,16.33
2017-10-02T22:01:10.741Z,16.03
2017-10-02T22:03:45.286Z,16.50
2017-10-02T22:06:19.786Z,17.00
2017-10-02T22:08:54.394Z,19.23
2017-10-02T22:11:29.261Z,15.73
2017-10-02T22:14:03.722Z,18.07
2017-10-02T22:16:38.285Z,16.13
2017-10-02T22:19:12.983Z,16.43
2017-10-02T22:21:47.602Z,17.53
2017-10-02T22:24:21.887Z,16.40
2017-10-02T22:26:56.210Z,17.50
2017-10-02T22:29:30.682Z,18.13
2017-10-02T22:32:05.314Z,16.23
2017-10-02T22:34:39.843Z,16.53
2017-10-02T22:37:14.463Z,16.87
2017-10-02T22:39:49.061Z,17.30
2017-10-02T22:42:24.431Z,18.10
2017-10-02T22:44:59.067Z,17.87
2017-10-02T22:47:33.673Z,16.47
2017-10-02T22:50:14.063Z,16.77
2017-10-02T22:52:48.729Z,15.83
2017-10-02T22:55:23.466Z,17.53
2017-10-02T22:57:58.061Z,16.33
2017-10-02T23:00:33.129Z,17.07
2017-10-02T23:03:07.782Z,17.20
2017-10-02T23:05:43.158Z,16.43
2017-10-02T23:08:17.725Z,15.70
2017-10-02T23:10:52.221Z,16.70
2017-10-02T23:13:27.604Z,16.67
2017-10-02T23:16:02.105Z,18.40
2017-10-02T23:18:36.642Z,16.47
2017-10-02T23:21:11.270Z,17.60
2017-10-02T23:23:45.705Z,15.67
2017-10-02T23:26:20.234Z,17.40
2017-10-02T23:28:54.811Z,16.57
2017-10-02T23:31:29.329Z,17.00
2017-10-02T23:34:03.983Z,16.87
2017-10-02T23:36:38.514Z,16.77
2017-10-02T23:39:13.766Z,16.20
2017-10-02T23:41:48.199Z,16.57
2017-10-02T23:44:22.851Z,17.20
2017-10-02T23:46:57.450Z,16.00
2017-10-02T23:49:32.153Z,16.40
2017-10-02T23:52:06.722Z,16.97
2017-10-02T23:54:41.330Z,17.50
2017-10-02T23:57:16.087Z,16.13
2017-10-02T23:59:50.550Z,16.87
